Time;durP1;ratioP1;P1;durP2;ratioP2;P2;SDS_P1;SDS_P2;PMS_P1;PMS_P2;Temp;Humidity;BMP_temperature;BMP_pressure;BME280_temperature;BME280_humidity;BME280_pressure;Samples;Min_cycle;Max_cycle;Signal;HPM_P1;HPM_P2
2022/06/26 00:01:15;;;;;;;30.63;26.90;;;17.00;99.90;;;;;;4953143;29;20213;-83
2022/06/26 00:03:42;;;;;;;24.65;22.00;;;17.00;99.90;;;;;;4952651;29;20323;-86
2022/06/26 00:06:11;;;;;;;23.40;20.95;;;17.00;99.90;;;;;;4952631;29;20213;-82
2022/06/26 00:08:38;;;;;;;18.38;16.60;;;17.00;99.90;;;;;;4951806;28;20517;-85
2022/06/26 00:11:05;;;;;;;18.20;16.38;;;17.00;99.90;;;;;;4951394;29;20209;-83
2022/06/26 00:13:32;;;;;;;20.35;18.27;;;17.00;99.90;;;;;;4951791;28;20244;-84
2022/06/26 00:15:59;;;;;;;18.23;16.30;;;17.00;99.90;;;;;;4953271;29;20227;-83
2022/06/26 00:18:26;;;;;;;20.02;17.95;;;17.00;99.90;;;;;;4953802;29;20201;-85
2022/06/26 00:20:53;;;;;;;19.85;17.85;;;17.00;99.90;;;;;;4953972;29;20212;-88
2022/06/26 00:23:21;;;;;;;25.30;22.63;;;17.00;99.90;;;;;;4952680;29;20210;-86
2022/06/26 00:25:48;;;;;;;24.23;21.63;;;17.10;99.90;;;;;;4952139;29;20273;-86
2022/06/26 00:28:15;;;;;;;29.15;25.60;;;17.00;99.90;;;;;;4950905;29;20197;-85
2022/06/26 00:30:42;;;;;;;29.02;26.13;;;17.00;99.90;;;;;;4953305;29;20205;-85
2022/06/26 00:33:09;;;;;;;23.38;20.95;;;17.00;99.90;;;;;;4953344;29;20272;-85
2022/06/26 00:35:36;;;;;;;22.73;20.52;;;17.00;99.90;;;;;;4953381;29;20214;-86
2022/06/26 00:38:03;;;;;;;22.80;20.50;;;17.00;99.90;;;;;;4953512;28;20205;-84
2022/06/26 00:40:31;;;;;;;23.23;20.80;;;17.00;99.90;;;;;;4951846;29;20216;-84
2022/06/26 00:42:58;;;;;;;20.85;18.75;;;17.00;99.90;;;;;;4952269;29;20200;-86
2022/06/26 00:45:25;;;;;;;26.85;24.02;;;17.00;99.90;;;;;;4952046;29;20217;-84
2022/06/26 00:47:52;;;;;;;26.73;23.98;;;17.00;99.90;;;;;;4951927;29;20529;-87
2022/06/26 00:50:19;;;;;;;21.33;19.23;;;17.00;99.90;;;;;;4953381;28;20243;-87
2022/06/26 00:52:46;;;;;;;20.30;18.38;;;17.00;99.90;;;;;;4954978;29;20209;-87
2022/06/26 00:55:13;;;;;;;23.08;20.73;;;17.10;99.90;;;;;;4952569;28;20605;-83
2022/06/26 00:57:41;;;;;;;30.80;25.17;;;17.10;99.90;;;;;;4954301;29;20243;-87
2022/06/26 01:00:11;;;;;;;25.23;22.63;;;17.10;99.90;;;;;;4953691;29;20767;-83
2022/06/26 01:02:39;;;;;;;27.73;24.77;;;17.10;99.90;;;;;;4952010;28;20252;-83
2022/06/26 01:05:07;;;;;;;25.23;22.52;;;17.10;99.90;;;;;;4951546;29;20212;-86
2022/06/26 01:07:34;;;;;;;28.63;24.33;;;17.10;99.90;;;;;;4952629;29;20873;-85
2022/06/26 01:10:02;;;;;;;23.73;21.33;;;17.10;99.90;;;;;;4952356;29;20208;-85
2022/06/26 01:12:29;;;;;;;26.98;23.60;;;17.10;99.90;;;;;;4952305;29;20544;-89
2022/06/26 01:14:59;;;;;;;25.98;23.45;;;17.10;99.90;;;;;;4952488;28;20860;-84
2022/06/26 01:17:26;;;;;;;26.83;23.90;;;17.10;99.90;;;;;;4952125;29;20300;-87
2022/06/26 01:19:55;;;;;;;24.92;22.33;;;17.10;99.90;;;;;;4953064;29;20292;-88
2022/06/26 01:22:21;;;;;;;28.67;25.58;;;17.10;99.90;;;;;;4952916;29;20197;-87
2022/06/26 01:24:50;;;;;;;29.33;25.63;;;17.10;99.90;;;;;;4952519;29;20208;-85
2022/06/26 01:27:17;;;;;;;25.83;23.30;;;17.10;99.90;;;;;;4951487;28;20385;-84
2022/06/26 01:29:44;;;;;;;28.77;25.58;;;17.10;99.90;;;;;;4952763;29;20283;-85
2022/06/26 01:32:11;;;;;;;27.08;23.65;;;17.10;99.90;;;;;;4952564;29;20247;-85
2022/06/26 01:34:38;;;;;;;22.77;20.38;;;17.10;99.90;;;;;;4953757;29;20221;-88
2022/06/26 01:37:05;;;;;;;26.70;23.23;;;17.00;99.90;;;;;;4952343;29;20205;-89
2022/06/26 01:39:32;;;;;;;26.05;23.33;;;17.10;99.90;;;;;;4952976;28;20300;-89
2022/06/26 01:42:00;;;;;;;23.08;20.23;;;17.00;99.90;;;;;;4953062;29;20240;-84
2022/06/26 01:44:27;;;;;;;25.30;22.30;;;17.00;99.90;;;;;;4952952;29;20205;-90
2022/06/26 01:46:54;;;;;;;27.70;21.35;;;17.00;99.90;;;;;;4953056;29;20616;-89
2022/06/26 01:49:23;;;;;;;25.35;19.95;;;17.00;99.90;;;;;;4952970;29;20213;-88
2022/06/26 01:51:50;;;;;;;18.67;16.60;;;17.00;99.90;;;;;;4952670;29;20213;-82
2022/06/26 01:54:18;;;;;;;25.23;18.33;;;16.90;99.90;;;;;;4951683;29;20229;-91
2022/06/26 01:56:45;;;;;;;20.02;16.40;;;16.90;99.90;;;;;;4952703;29;20209;-86
2022/06/26 01:59:13;;;;;;;16.67;14.63;;;16.90;99.90;;;;;;4951720;29;20893;-90
2022/06/26 02:01:40;;;;;;;21.52;16.65;;;16.90;99.90;;;;;;4951805;29;20229;-90
2022/06/26 02:04:07;;;;;;;20.08;16.08;;;16.80;99.90;;;;;;4952635;29;20472;-86
2022/06/26 02:06:34;;;;;;;16.95;15.15;;;16.80;99.90;;;;;;4952368;29;20304;-92
2022/06/26 02:09:01;;;;;;;17.38;15.57;;;16.80;99.90;;;;;;4952296;29;20292;-91
2022/06/26 02:14:14;;;;;;;15.93;14.00;;;16.80;99.90;;;;;;4949564;28;20638;-89
2022/06/26 02:16:41;;;;;;;16.58;14.15;;;16.80;99.90;;;;;;4949874;29;20213;-84
2022/06/26 02:19:07;;;;;;;18.35;16.38;;;16.80;99.90;;;;;;4950986;29;20506;-84
2022/06/26 02:21:38;;;;;;;26.35;19.83;;;16.80;99.90;;;;;;4950879;29;20271;-83
2022/06/26 02:24:06;;;;;;;27.70;22.92;;;16.80;99.90;;;;;;4951167;29;20288;-92
2022/06/26 02:26:33;;;;;;;29.77;23.38;;;16.80;99.90;;;;;;4952688;29;20205;-85
2022/06/26 02:28:59;;;;;;;27.60;22.60;;;16.80;99.90;;;;;;4951061;29;20288;-85
2022/06/26 02:31:28;;;;;;;26.92;22.95;;;16.80;99.90;;;;;;4951348;29;20405;-85
2022/06/26 02:33:55;;;;;;;32.97;26.27;;;16.80;99.90;;;;;;4951587;29;20713;-82
2022/06/26 02:36:22;;;;;;;29.10;22.70;;;16.70;99.90;;;;;;4950752;29;20221;-90
2022/06/26 02:38:49;;;;;;;27.15;21.58;;;16.70;99.90;;;;;;4951908;29;20506;-88
2022/06/26 02:41:16;;;;;;;31.70;25.17;;;16.70;99.90;;;;;;4951021;29;20213;-86
2022/06/26 02:43:43;;;;;;;24.08;20.25;;;16.70;99.90;;;;;;4951775;29;20854;-84
2022/06/26 02:46:11;;;;;;;30.15;25.33;;;16.70;99.90;;;;;;4951245;29;20205;-84
2022/06/26 02:48:39;;;;;;;27.10;22.65;;;16.60;99.90;;;;;;4952138;29;20209;-88
2022/06/26 02:51:06;;;;;;;29.65;23.85;;;16.60;99.90;;;;;;4951741;29;20507;-85
2022/06/26 02:53:32;;;;;;;32.20;25.50;;;16.60;99.90;;;;;;4951972;29;20500;-86
2022/06/26 02:55:59;;;;;;;33.97;25.63;;;16.50;99.90;;;;;;4951216;28;20297;-86
2022/06/26 02:58:26;;;;;;;26.83;22.52;;;16.50;99.90;;;;;;4950840;29;20215;-89
2022/06/26 03:00:54;;;;;;;30.10;24.13;;;16.50;99.90;;;;;;4951500;29;20197;-82
2022/06/26 03:03:21;;;;;;;29.65;21.63;;;16.40;99.90;;;;;;4951251;29;20548;-90
2022/06/26 03:05:49;;;;;;;29.92;23.90;;;16.40;99.90;;;;;;4952800;28;20244;-92
2022/06/26 03:08:16;;;;;;;26.85;21.38;;;16.40;99.90;;;;;;4953138;29;20568;-88
2022/06/26 03:10:43;;;;;;;28.58;23.80;;;16.30;99.90;;;;;;4952304;29;20624;-84
2022/06/26 03:13:11;;;;;;;31.10;24.83;;;16.30;99.90;;;;;;4950585;28;20291;-89
2022/06/26 03:15:38;;;;;;;29.45;23.98;;;16.20;99.90;;;;;;4952761;29;20225;-83
2022/06/26 03:18:05;;;;;;;32.22;25.50;;;16.20;99.90;;;;;;4966525;23;20659;-84
2022/06/26 03:20:32;;;;;;;30.60;25.98;;;16.20;99.90;;;;;;4952882;28;20306;-93
2022/06/26 03:23:00;;;;;;;25.52;21.35;;;16.20;99.90;;;;;;4953198;29;20669;-85
2022/06/26 03:25:28;;;;;;;28.17;21.60;;;16.10;99.90;;;;;;4954030;29;20197;-88
2022/06/26 03:27:54;;;;;;;28.80;23.55;;;16.10;99.90;;;;;;4953655;28;20603;-88
2022/06/26 03:30:22;;;;;;;28.55;22.35;;;16.10;99.90;;;;;;4952245;29;20206;-91
2022/06/26 03:32:49;;;;;;;28.17;22.58;;;16.10;99.90;;;;;;4952685;28;20206;-89
2022/06/26 03:35:16;;;;;;;28.92;22.08;;;16.10;99.90;;;;;;4951736;29;20229;-90
2022/06/26 03:37:42;;;;;;;24.67;20.23;;;16.00;99.90;;;;;;4951930;29;20933;-86
2022/06/26 03:40:12;;;;;;;28.60;23.20;;;16.00;99.90;;;;;;4959898;28;20209;-89
2022/06/26 03:42:39;;;;;;;30.98;21.85;;;16.00;99.90;;;;;;4972564;28;20205;-82
2022/06/26 03:45:07;;;;;;;31.83;22.50;;;15.90;99.90;;;;;;4972379;28;20200;-91
2022/06/26 03:47:34;;;;;;;32.85;23.20;;;15.90;99.90;;;;;;4972228;28;20200;-88
2022/06/26 03:50:01;;;;;;;28.30;22.25;;;15.90;99.90;;;;;;4959352;28;20209;-86
2022/06/26 03:52:28;;;;;;;29.33;21.25;;;15.90;99.90;;;;;;4955147;29;20489;-87
2022/06/26 03:54:55;;;;;;;25.10;20.15;;;15.80;99.90;;;;;;4961936;29;20800;-86
2022/06/26 03:57:23;;;;;;;23.58;19.13;;;15.80;99.90;;;;;;4973819;28;20216;-86
2022/06/26 03:59:50;;;;;;;24.45;18.27;;;15.80;99.90;;;;;;4978777;28;20215;-89
2022/06/26 04:02:17;;;;;;;25.92;19.48;;;15.80;99.90;;;;;;4972116;28;20230;-81
2022/06/26 04:04:44;;;;;;;31.25;22.73;;;15.80;99.90;;;;;;4970988;28;20201;-82
2022/06/26 04:07:12;;;;;;;23.95;19.48;;;15.70;99.90;;;;;;4956280;29;20284;-82
2022/06/26 04:09:39;;;;;;;20.23;16.67;;;15.70;99.90;;;;;;4968225;28;20694;-88
2022/06/26 04:12:07;;;;;;;19.67;16.08;;;15.80;99.90;;;;;;4976824;28;20500;-84
2022/06/26 04:14:35;;;;;;;22.05;17.08;;;15.80;99.90;;;;;;4978208;28;20232;-83
2022/06/26 04:17:02;;;;;;;26.35;19.38;;;15.80;99.90;;;;;;4964006;28;20208;-85
2022/06/26 04:19:29;;;;;;;24.02;17.52;;;15.80;99.90;;;;;;4955301;29;20853;-80
2022/06/26 04:21:57;;;;;;;25.60;18.23;;;15.90;99.90;;;;;;4955425;29;20284;-82
2022/06/26 04:24:24;;;;;;;27.02;20.52;;;16.00;99.90;;;;;;4958509;28;20237;-83
2022/06/26 04:26:51;;;;;;;23.73;18.83;;;16.00;99.90;;;;;;4953733;29;20295;-85
2022/06/26 04:29:18;;;;;;;22.05;16.58;;;16.10;99.90;;;;;;4954385;29;20201;-86
2022/06/26 04:31:47;;;;;;;21.95;18.85;;;16.20;99.90;;;;;;4955274;28;20213;-84
2022/06/26 04:34:14;;;;;;;24.52;17.45;;;16.30;99.90;;;;;;4953086;29;20567;-85
2022/06/26 04:36:41;;;;;;;20.98;16.17;;;16.40;99.90;;;;;;4954012;29;20208;-83
2022/06/26 04:39:08;;;;;;;18.98;16.30;;;16.40;99.90;;;;;;4953279;28;20217;-84
2022/06/26 04:41:39;;;;;;;21.98;16.48;;;16.40;99.90;;;;;;4952198;29;20206;-83
2022/06/26 04:44:07;;;;;;;22.70;16.70;;;16.40;99.90;;;;;;4962952;28;20213;-82
2022/06/26 04:46:34;;;;;;;17.73;14.93;;;16.40;99.90;;;;;;4972453;28;20589;-82
2022/06/26 04:49:03;;;;;;;20.67;15.63;;;16.40;99.90;;;;;;4971599;28;20892;-88
2022/06/26 04:51:30;;;;;;;22.92;16.27;;;16.40;99.90;;;;;;4971923;28;20216;-84
2022/06/26 04:53:57;;;;;;;20.60;15.45;;;16.40;99.90;;;;;;4959219;28;20681;-81
2022/06/26 04:56:24;;;;;;;21.65;15.60;;;16.50;99.90;;;;;;4956903;29;20260;-83
2022/06/26 04:58:52;;;;;;;21.23;16.48;;;16.50;99.90;;;;;;4955461;28;20886;-89
2022/06/26 05:01:19;;;;;;;18.88;15.57;;;16.50;99.90;;;;;;4951673;28;20300;-86
2022/06/26 05:03:46;;;;;;;17.58;13.98;;;16.70;99.90;;;;;;4952783;29;20198;-86
2022/06/26 05:06:14;;;;;;;15.25;12.35;;;16.80;99.90;;;;;;4954186;29;20201;-90
2022/06/26 05:08:42;;;;;;;18.38;14.10;;;16.90;99.90;;;;;;4954546;28;20320;-89
2022/06/26 05:11:09;;;;;;;21.65;13.55;;;17.00;99.90;;;;;;4955750;29;20282;-84
2022/06/26 05:13:36;;;;;;;16.45;12.60;;;17.00;99.90;;;;;;4955251;28;20380;-90
2022/06/26 05:16:03;;;;;;;18.13;14.23;;;17.10;99.90;;;;;;4967760;28;20541;-86
2022/06/26 05:18:30;;;;;;;17.98;12.55;;;17.30;99.90;;;;;;4974405;28;20402;-89
2022/06/26 05:20:57;;;;;;;18.23;13.02;;;17.50;99.90;;;;;;4973860;28;20208;-82
2022/06/26 05:23:26;;;;;;;14.88;12.57;;;17.60;99.90;;;;;;4973244;28;20204;-83
2022/06/26 05:25:53;;;;;;;16.20;11.15;;;17.80;99.90;;;;;;4954297;28;20209;-84
2022/06/26 05:28:20;;;;;;;12.73;10.57;;;18.10;99.90;;;;;;4950953;29;20572;-88
2022/06/26 05:30:46;;;;;;;17.20;12.55;;;18.40;99.90;;;;;;4950355;29;20857;-91
2022/06/26 05:33:13;;;;;;;14.75;10.68;;;18.50;99.90;;;;;;4950440;28;20213;-89
2022/06/26 05:35:40;;;;;;;13.40;11.43;;;18.60;99.90;;;;;;4951042;29;20289;-84
2022/06/26 05:38:09;;;;;;;14.07;10.82;;;18.70;99.90;;;;;;4950700;29;20273;-91
2022/06/26 05:40:37;;;;;;;12.60;8.95;;;19.10;99.90;;;;;;4951723;28;20211;-89
2022/06/26 05:43:04;;;;;;;13.40;9.27;;;19.40;99.90;;;;;;4952121;28;20248;-92
2022/06/26 05:45:31;;;;;;;12.45;10.05;;;19.50;99.90;;;;;;4951840;29;20206;-89
2022/06/26 05:47:58;;;;;;;10.25;9.27;;;19.60;99.90;;;;;;4952358;29;20204;-88
2022/06/26 05:50:25;;;;;;;10.70;9.00;;;19.80;99.90;;;;;;4952160;28;20223;-89
2022/06/26 05:52:52;;;;;;;12.35;9.02;;;20.00;99.90;;;;;;4950761;29;20280;-86
2022/06/26 05:55:19;;;;;;;9.95;7.85;;;20.20;99.90;;;;;;4951225;29;20221;-86
2022/06/26 05:57:48;;;;;;;11.38;8.05;;;20.30;99.90;;;;;;4963442;28;20816;-90
2022/06/26 06:00:15;;;;;;;8.45;6.10;;;20.30;99.90;;;;;;4969826;28;20621;-88
2022/06/26 06:02:42;;;;;;;8.75;6.90;;;20.30;99.90;;;;;;4951774;29;20224;-83
2022/06/26 06:05:10;;;;;;;7.75;6.38;;;20.10;99.90;;;;;;4949514;29;20586;-82
2022/06/26 06:07:37;;;;;;;6.68;5.90;;;20.00;99.90;;;;;;4949862;28;20206;-82
2022/06/26 06:10:06;;;;;;;8.80;5.97;;;19.90;99.90;;;;;;4949688;29;20209;-81
2022/06/26 06:12:33;;;;;;;8.32;6.40;;;19.70;99.90;;;;;;4948602;28;20285;-82
2022/06/26 06:15:02;;;;;;;7.75;6.28;;;19.70;99.90;;;;;;4948910;28;20229;-83
2022/06/26 06:17:40;;;;;;;8.85;6.65;;;19.60;99.90;;;;;;4949600;28;20721;-85
2022/06/26 06:20:13;;;;;;;10.05;6.53;;;19.50;99.90;;;;;;4949344;29;20202;-84
2022/06/26 06:22:41;;;;;;;6.25;5.65;;;19.40;99.90;;;;;;4963771;28;20204;-82
2022/06/26 06:25:09;;;;;;;10.45;6.60;;;19.40;99.90;;;;;;4968486;28;20283;-82
2022/06/26 06:27:36;;;;;;;6.25;5.50;;;19.40;99.90;;;;;;4968738;28;20784;-83
2022/06/26 06:30:07;;;;;;;7.55;5.63;;;19.50;99.90;;;;;;4968347;28;20208;-81
2022/06/26 06:32:34;;;;;;;6.40;5.70;;;19.50;99.90;;;;;;4968619;28;20200;-82
2022/06/26 06:35:01;;;;;;;6.57;5.72;;;19.50;99.90;;;;;;4968520;28;20335;-84
2022/06/26 06:37:46;;;;;;;9.00;5.28;;;19.30;99.90;;;;;;4949923;28;20593;-87
2022/06/26 06:40:14;;;;;;;6.05;4.30;;;19.30;99.90;;;;;;4968686;28;20197;-83
2022/06/26 06:42:42;;;;;;;7.55;5.00;;;19.30;99.90;;;;;;4969366;28;20211;-83
2022/06/26 06:45:12;;;;;;;7.50;4.72;;;19.30;99.90;;;;;;4953156;28;20209;-81
2022/06/26 06:47:39;;;;;;;8.88;4.88;;;19.40;99.90;;;;;;4948343;29;20272;-81
2022/06/26 06:50:06;;;;;;;5.72;4.30;;;19.40;99.90;;;;;;4949217;29;20211;-83
2022/06/26 06:55:55;;;;;;;6.18;3.90;;;19.50;99.90;;;;;;4924825;28;20219;-84
2022/06/26 06:58:22;;;;;;;6.40;4.43;;;19.50;99.90;;;;;;4947047;28;20213;-81
2022/06/26 07:00:50;;;;;;;9.18;4.38;;;19.50;99.90;;;;;;4947869;28;20205;-83
2022/06/26 07:03:18;;;;;;;5.00;3.67;;;19.50;99.90;;;;;;4948153;28;20209;-80
2022/06/26 07:05:44;;;;;;;5.32;3.92;;;19.50;99.90;;;;;;4948900;28;20220;-80
2022/06/26 07:08:11;;;;;;;9.43;4.60;;;19.50;99.90;;;;;;4949407;29;20207;-82
2022/06/26 07:10:38;;;;;;;5.75;4.05;;;19.60;99.90;;;;;;4948999;29;20209;-82
2022/06/26 07:13:05;;;;;;;7.13;3.70;;;19.70;99.90;;;;;;4949455;28;20231;-85
2022/06/26 07:15:32;;;;;;;6.50;3.85;;;19.90;99.90;;;;;;4951827;28;20221;-85
2022/06/26 07:18:00;;;;;;;5.03;3.47;;;20.20;99.90;;;;;;4954657;29;20243;-79
2022/06/26 07:20:27;;;;;;;6.50;3.28;;;20.20;99.90;;;;;;4951092;29;20212;-85
2022/06/26 07:22:54;;;;;;;4.68;3.35;;;20.40;99.90;;;;;;4957064;28;20211;-84
2022/06/26 07:25:21;;;;;;;4.20;3.25;;;20.40;99.90;;;;;;4973723;28;20200;-81
2022/06/26 07:27:49;;;;;;;6.38;2.80;;;20.40;99.90;;;;;;4975393;28;20270;-82
2022/06/26 07:30:17;;;;;;;5.38;3.15;;;20.30;99.90;;;;;;4973415;28;20224;-84
2022/06/26 07:32:44;;;;;;;4.18;2.65;;;20.30;99.90;;;;;;4973292;28;20694;-89
2022/06/26 07:35:12;;;;;;;5.50;2.92;;;20.30;99.90;;;;;;4975884;28;20496;-88
2022/06/26 07:37:40;;;;;;;4.07;2.13;;;20.40;99.90;;;;;;4976170;28;20284;-90
2022/06/26 07:40:08;;;;;;;5.18;3.00;;;20.50;99.90;;;;;;4979303;28;20205;-86
2022/06/26 07:42:35;;;;;;;6.70;3.03;;;20.50;99.90;;;;;;4971587;28;20220;-89
2022/06/26 07:45:03;;;;;;;4.63;2.53;;;20.60;99.90;;;;;;4967640;29;20269;-92
2022/06/26 07:47:29;;;;;;;6.38;2.22;;;20.50;99.90;;;;;;4967087;29;20292;-89
2022/06/26 07:49:56;;;;;;;4.57;2.13;;;20.50;99.90;;;;;;4962899;29;20205;-79
2022/06/26 07:52:24;;;;;;;5.45;2.83;;;20.50;99.90;;;;;;4958360;28;20227;-89
2022/06/26 07:54:51;;;;;;;5.13;2.13;;;20.70;99.90;;;;;;4958550;28;20216;-87
2022/06/26 07:57:19;;;;;;;5.40;1.90;;;20.80;99.90;;;;;;4974838;28;20738;-90
2022/06/26 07:59:45;;;;;;;4.07;1.60;;;20.90;99.90;;;;;;4975419;28;20209;-83
2022/06/26 08:02:13;;;;;;;5.80;1.98;;;20.90;99.90;;;;;;4971718;28;20207;-80
2022/06/26 08:04:39;;;;;;;5.07;2.38;;;20.90;99.90;;;;;;4970802;28;20288;-90
2022/06/26 08:07:06;;;;;;;2.83;2.20;;;20.90;99.90;;;;;;4976854;28;20769;-85
2022/06/26 08:09:35;;;;;;;6.05;2.53;;;20.90;99.90;;;;;;4968791;28;20594;-83
2022/06/26 08:12:02;;;;;;;3.85;1.88;;;21.30;99.90;;;;;;4955213;29;20197;-87
2022/06/26 08:14:28;;;;;;;3.60;2.20;;;21.60;99.90;;;;;;4972412;28;20321;-80
2022/06/26 08:16:56;;;;;;;5.43;2.17;;;21.70;99.90;;;;;;4975525;28;20644;-88
2022/06/26 08:19:22;;;;;;;4.20;2.17;;;22.00;99.90;;;;;;4961306;28;20244;-84
2022/06/26 08:22:01;;;;;;;5.05;2.40;;;22.10;99.90;;;;;;4956787;29;20232;-84
2022/06/26 08:24:28;;;;;;;2.53;1.83;;;22.40;99.90;;;;;;4953364;29;20205;-88
2022/06/26 08:26:56;;;;;;;4.18;1.95;;;22.40;99.90;;;;;;4953230;28;20294;-79
2022/06/26 08:29:24;;;;;;;4.00;1.83;;;22.80;99.90;;;;;;4954142;29;20260;-84
2022/06/26 08:31:50;;;;;;;3.85;1.40;;;23.20;99.90;;;;;;4954738;29;20212;-89
2022/06/26 08:34:17;;;;;;;4.88;1.88;;;23.60;99.90;;;;;;4952039;29;20210;-76
2022/06/26 08:36:44;;;;;;;4.35;1.75;;;23.70;99.90;;;;;;4953858;28;20239;-88
2022/06/26 08:39:11;;;;;;;2.67;1.83;;;24.10;99.90;;;;;;4950198;29;20697;-82
2022/06/26 08:41:41;;;;;;;4.70;1.70;;;24.50;99.90;;;;;;4961085;28;20895;-88
2022/06/26 08:44:10;;;;;;;2.95;1.48;;;25.00;99.90;;;;;;4975893;28;20593;-88
2022/06/26 08:46:39;;;;;;;6.57;2.42;;;25.10;99.90;;;;;;4958536;28;20272;-88
2022/06/26 08:49:10;;;;;;;5.72;2.20;;;24.80;99.90;;;;;;4955166;29;20723;-76
2022/06/26 08:51:38;;;;;;;5.13;2.10;;;24.30;99.90;;;;;;4951570;29;20193;-85
2022/06/26 08:54:06;;;;;;;4.85;1.98;;;24.10;99.90;;;;;;4966328;28;20219;-79
2022/06/26 08:56:33;;;;;;;3.03;1.77;;;24.00;99.90;;;;;;4964127;28;20622;-86
2022/06/26 08:59:00;;;;;;;3.45;2.00;;;23.90;99.90;;;;;;4953680;29;20205;-82
2022/06/26 09:01:29;;;;;;;4.60;1.77;;;24.20;99.90;;;;;;4950998;28;20213;-85
2022/06/26 09:03:56;;;;;;;2.70;1.70;;;24.50;99.90;;;;;;4953672;29;20275;-85
2022/06/26 09:06:23;;;;;;;5.13;2.20;;;24.50;99.90;;;;;;4958555;28;20227;-81
2022/06/26 09:08:50;;;;;;;4.85;1.90;;;24.50;99.90;;;;;;4968842;28;20217;-86
2022/06/26 09:11:18;;;;;;;2.15;1.50;;;24.70;99.90;;;;;;4969064;28;20231;-82
2022/06/26 09:13:46;;;;;;;3.03;1.55;;;24.90;99.90;;;;;;4966518;28;20327;-79
2022/06/26 09:16:15;;;;;;;3.00;1.58;;;25.20;99.90;;;;;;4971103;28;20311;-86
2022/06/26 09:18:44;;;;;;;4.35;1.98;;;25.20;99.90;;;;;;4970159;28;20901;-83
2022/06/26 09:21:12;;;;;;;5.05;1.70;;;25.30;99.90;;;;;;4951601;29;20269;-78
2022/06/26 09:23:40;;;;;;;4.72;1.70;;;25.10;99.90;;;;;;4947808;29;20205;-79
2022/06/26 09:26:07;;;;;;;3.55;1.70;;;25.10;99.90;;;;;;4954961;28;20204;-82
2022/06/26 09:28:34;;;;;;;4.57;1.90;;;25.30;99.90;;;;;;4979852;28;20256;-81
2022/06/26 09:31:03;;;;;;;3.35;1.25;;;25.50;99.90;;;;;;4967995;28;20207;-86
2022/06/26 09:33:32;;;;;;;3.95;1.42;;;25.80;99.90;;;;;;4971227;28;20204;-79
2022/06/26 09:36:01;;;;;;;3.53;1.50;;;26.00;99.90;;;;;;4968780;28;20348;-86
2022/06/26 09:38:30;;;;;;;3.00;1.58;;;26.10;99.90;;;;;;4963314;28;20580;-87
2022/06/26 09:40:58;;;;;;;3.67;1.50;;;26.10;99.90;;;;;;4949978;29;20212;-79
2022/06/26 09:43:30;;;;;;;4.10;1.67;;;26.00;99.90;;;;;;4950278;29;20205;-80
2022/06/26 09:45:59;;;;;;;3.42;1.67;;;25.80;99.90;;;;;;4950215;29;20208;-79
2022/06/26 09:48:26;;;;;;;2.53;1.65;;;25.50;99.90;;;;;;4964596;28;20319;-79
2022/06/26 09:50:54;;;;;;;2.83;1.50;;;25.50;99.90;;;;;;4970751;28;20994;-85
2022/06/26 09:53:24;;;;;;;3.05;1.83;;;25.60;99.90;;;;;;4972691;28;20219;-83
2022/06/26 09:55:53;;;;;;;2.22;1.48;;;25.50;99.90;;;;;;4972124;28;20296;-83
2022/06/26 09:58:20;;;;;;;3.80;2.03;;;25.60;99.90;;;;;;4968965;28;20212;-82
2022/06/26 10:06:25;;;;;;;4.78;2.05;;;25.50;99.90;;;;;;4971458;28;20226;-86
2022/06/26 10:06:33;;;;;;;3.15;1.95;;;25.50;99.90;;;;;;4967911;28;20275;-82
2022/06/26 10:09:04;;;;;;;2.38;1.67;;;25.50;99.90;;;;;;4967661;28;20209;-82
2022/06/26 10:11:32;;;;;;;7.55;1.88;;;25.70;99.90;;;;;;4968220;28;20201;-81
2022/06/26 10:14:02;;;;;;;3.65;1.60;;;25.80;99.90;;;;;;4968355;28;20625;-83
2022/06/26 10:16:46;;;;;;;4.03;1.50;;;25.90;99.90;;;;;;4968767;28;20906;-84
2022/06/26 10:19:23;;;;;;;3.70;1.92;;;26.10;99.90;;;;;;4949178;28;20261;-83
2022/06/26 10:21:50;;;;;;;3.78;1.98;;;26.20;99.90;;;;;;4949359;29;20211;-83
2022/06/26 10:24:19;;;;;;;5.25;2.33;;;26.20;99.90;;;;;;4950361;29;20216;-83
2022/06/26 10:26:54;;;;;;;4.03;1.83;;;26.20;99.90;;;;;;4950163;28;20292;-81
2022/06/26 10:29:21;;;;;;;5.30;1.90;;;26.30;99.90;;;;;;4950277;29;20205;-81
2022/06/26 10:31:49;;;;;;;5.57;1.88;;;26.40;99.90;;;;;;4950554;28;20216;-82
2022/06/26 10:34:19;;;;;;;4.40;2.17;;;26.50;99.90;;;;;;4957506;28;20201;-81
2022/06/26 10:36:58;;;;;;;4.30;2.38;;;26.60;99.90;;;;;;4956144;29;20236;-80
2022/06/26 10:39:47;;;;;;;5.65;2.53;;;26.60;99.90;;;;;;4961973;28;20209;-82
2022/06/26 10:45:07;;;;;;;3.75;2.90;;;26.70;99.90;;;;;;4962009;29;20731;-83
2022/06/26 10:47:49;;;;;;;4.10;2.53;;;26.60;99.90;;;;;;4958610;28;20219;-89
2022/06/26 10:50:28;;;;;;;5.80;2.50;;;26.70;99.90;;;;;;4960269;29;20280;-84
2022/06/26 10:53:11;;;;;;;4.00;1.85;;;26.70;99.90;;;;;;4953844;28;20205;-84
2022/06/26 10:55:39;;;;;;;5.47;2.33;;;26.50;99.90;;;;;;4946857;29;20229;-80
2022/06/26 10:58:06;;;;;;;7.40;3.20;;;26.40;99.90;;;;;;4949491;28;20630;-84
2022/06/26 11:00:34;;;;;;;4.20;2.13;;;26.30;99.90;;;;;;4953953;29;20221;-85
2022/06/26 11:03:01;;;;;;;3.97;2.38;;;26.30;99.90;;;;;;4954991;28;20203;-85
2022/06/26 11:05:29;;;;;;;5.40;2.50;;;26.20;99.90;;;;;;4953704;29;20252;-80
2022/06/26 11:07:56;;;;;;;4.30;2.28;;;26.10;99.90;;;;;;4950883;29;20240;-80
2022/06/26 11:10:25;;;;;;;5.85;2.53;;;25.80;99.90;;;;;;4952458;28;20213;-83
2022/06/26 11:12:54;;;;;;;4.28;1.88;;;25.60;99.90;;;;;;4952738;28;20225;-81
2022/06/26 11:15:30;;;;;;;5.35;3.58;;;25.50;99.90;;;;;;4952382;29;20209;-81
2022/06/26 11:17:59;;;;;;;5.00;2.47;;;25.50;99.90;;;;;;4953062;28;20236;-84
2022/06/26 11:23:13;;;;;;;4.63;2.67;;;25.40;99.90;;;;;;4967638;28;20208;-81
2022/06/26 11:25:41;;;;;;;5.10;2.38;;;25.40;99.90;;;;;;4955112;28;20209;-89
2022/06/26 11:28:10;;;;;;;6.25;3.58;;;25.50;99.90;;;;;;4955348;29;20934;-81
2022/06/26 11:30:38;;;;;;;6.30;2.42;;;25.50;99.90;;;;;;4955272;29;20212;-89
2022/06/26 11:33:05;;;;;;;3.92;2.35;;;25.50;99.90;;;;;;4956249;29;20214;-85
2022/06/26 11:35:34;;;;;;;5.20;2.40;;;25.50;99.90;;;;;;4956303;29;20552;-88
2022/06/26 11:38:10;;;;;;;4.85;2.85;;;25.40;99.90;;;;;;4955962;29;20221;-87
2022/06/26 11:40:37;;;;;;;6.22;3.03;;;25.40;99.90;;;;;;4956006;28;20221;-89
2022/06/26 11:43:04;;;;;;;5.28;3.60;;;25.30;99.90;;;;;;4955826;29;20220;-88
2022/06/26 11:45:32;;;;;;;7.68;3.10;;;25.30;99.90;;;;;;4954804;29;20268;-84
2022/06/26 11:48:00;;;;;;;4.78;2.10;;;25.20;99.90;;;;;;4950886;28;20269;-79
2022/06/26 11:50:29;;;;;;;3.35;2.65;;;25.20;99.90;;;;;;4968609;28;20215;-79
2022/06/26 11:52:58;;;;;;;4.88;2.30;;;25.40;99.90;;;;;;4970572;28;20482;-90
2022/06/26 11:55:26;;;;;;;5.45;2.40;;;25.70;99.90;;;;;;4972231;28;20201;-88
2022/06/26 11:57:54;;;;;;;5.57;2.45;;;26.10;99.90;;;;;;4953799;29;20221;-88
2022/06/26 12:00:22;;;;;;;5.90;3.20;;;26.30;99.90;;;;;;4955408;29;20229;-88
2022/06/26 12:02:51;;;;;;;5.07;2.63;;;26.50;99.90;;;;;;4955095;29;20205;-86
2022/06/26 12:05:21;;;;;;;4.97;2.22;;;26.70;99.90;;;;;;4952718;29;20205;-88
2022/06/26 12:07:50;;;;;;;3.47;2.00;;;26.80;99.90;;;;;;4955364;28;20209;-89
2022/06/26 12:10:32;;;;;;;3.78;2.40;;;26.90;99.90;;;;;;4954460;28;20206;-86
2022/06/26 12:13:00;;;;;;;5.13;2.28;;;27.20;99.90;;;;;;4954771;28;20586;-89
2022/06/26 12:15:31;;;;;;;7.03;2.67;;;27.30;99.90;;;;;;4954813;28;20301;-81
2022/06/26 12:18:00;;;;;;;3.15;1.98;;;27.20;99.90;;;;;;4952379;28;20241;-83
2022/06/26 12:20:34;;;;;;;4.03;1.90;;;27.30;99.90;;;;;;4954373;28;20205;-88
2022/06/26 12:23:01;;;;;;;6.60;2.45;;;27.40;99.90;;;;;;4952907;29;20479;-85
2022/06/26 12:25:30;;;;;;;4.43;2.20;;;27.30;99.90;;;;;;4951370;29;20209;-82
2022/06/26 12:27:57;;;;;;;3.92;1.90;;;27.20;99.90;;;;;;4961560;28;20207;-87
2022/06/26 12:30:29;;;;;;;4.55;1.98;;;26.90;99.90;;;;;;4972375;28;20211;-79
2022/06/26 12:32:59;;;;;;;3.22;2.05;;;26.80;99.90;;;;;;4971236;28;20200;-81
2022/06/26 12:35:27;;;;;;;5.25;2.13;;;26.60;99.90;;;;;;4972525;28;20212;-88
2022/06/26 12:37:55;;;;;;;3.58;2.15;;;26.40;99.90;;;;;;4962939;28;20676;-88
2022/06/26 12:40:22;;;;;;;4.40;2.25;;;26.50;99.90;;;;;;4953045;29;20205;-90
2022/06/26 12:42:49;;;;;;;4.10;2.28;;;26.70;99.90;;;;;;4952259;29;20400;-84
2022/06/26 12:45:16;;;;;;;3.40;1.95;;;26.70;99.90;;;;;;4952103;28;20216;-82
2022/06/26 12:47:43;;;;;;;5.55;2.47;;;26.60;99.90;;;;;;4952144;28;20201;-90
2022/06/26 12:50:13;;;;;;;5.68;2.55;;;26.50;99.90;;;;;;4956204;28;20235;-83
2022/06/26 12:52:40;;;;;;;5.78;2.75;;;26.30;99.90;;;;;;4951189;28;20342;-83
2022/06/26 12:55:11;;;;;;;3.78;2.00;;;25.80;99.90;;;;;;4952471;29;20197;-88
2022/06/26 12:57:38;;;;;;;4.93;2.30;;;25.80;99.90;;;;;;4953571;29;20223;-85